PASSION-SWL


 
AccueilAccueil  Hébergeur d'imagesHébergeur d'images  FAQFAQ  RechercherRechercher  MembresMembres  GroupesGroupes  S'enregistrerS'enregistrer  ConnexionConnexion  

Partagez | 
 

 21 955 Khz - HFDL Canaries - Espagne

Voir le sujet précédent Voir le sujet suivant Aller en bas 
AuteurMessage
F-60130

avatar

Messages : 850
Date d'inscription : 14/04/2012

MessageSujet: 21 955 Khz - HFDL Canaries - Espagne   Ven 3 Avr - 19:50


Bonjour à tous,

Pris ce soir un peu de texte sur des trames ACARS sur la fréquence de 21 955 Khz de l'aeronautical mobile route service des iles canaries :

19:10:03 03/04/2015 DATA RATE 600 DOUBLE SLOT
19:10:03 03/04/2015 UPLINK
19:10:03 03/04/2015 GND ID 017 AIR ID 035 MDDR 1200
19:10:03 03/04/2015 UNNUMBERED DATA CRC OK
19:10:03 03/04/2015 ACARS MESSAGE CRC OK
19:10:03 03/04/2015 AGCS-D UPLINK AIRCRAFT: EI-DIR
19:10:03 03/04/2015 NAK LABEL: A1 DELIVER OCEANIC CLEARANCE
19:10:03 03/04/2015 BLOCK IDENTIFIER: A
19:10:03 03/04/2015 TEXT FOLLOWS
19:10:03 03/04/2015 /PIKCLYA.OC1/CLX 1703 150403 EGGX CLRNCE 886
AZA650 CLRD TO CYYZ VIA MALOT
NAT B
MALOT 52N020W 51N030W 51N040W 49N050W JOOPY
FM MALOT/1828 MNTN F380 M080
END OF MESSAGEAE31

19:10:03 03/04/2015 END OF TEXT


19:10:50 03/04/2015 DATA RATE 300 DOUBLE SLOT
19:10:50 03/04/2015 UPLINK
19:10:50 03/04/2015 GND ID 017 AIR ID 255 MDDR 300
19:10:50 03/04/2015 LOG-ON CONFIRM CRC OK
19:10:50 03/04/2015 ICAO AIRCRAFT ADDRESS 20010000 AIR ID 245
19:10:50 03/04/2015 AIR ID 255 MDDR 300
19:10:50 03/04/2015 LOG-ON CONFIRM CRC OK
19:10:50 03/04/2015 ICAO AIRCRAFT ADDRESS 20442613 AIR ID 246
19:10:50 03/04/2015 AIR ID 141 MDDR 1200
19:10:50 03/04/2015 UNNUMBERED DATA CRC OK
19:10:50 03/04/2015 ACARS MESSAGE CRC OK
19:10:50 03/04/2015 AGCS-D UPLINK AIRCRAFT: G-DHLE
19:10:50 03/04/2015 NAK LABEL: A9 DELIVER ATIS INFORMATION
19:10:50 03/04/2015 BLOCK IDENTIFIER: A
19:10:50 03/04/2015 TEXT FOLLOWS
19:10:50 03/04/2015 QNH 1016HPA
TEMPO BKN1400FT
CONFIRM ARR E
CB95

19:10:50 03/04/2015 END OF TEXT


19:11:29 03/04/2015 AIR ID 200 MDDR 300
19:11:29 03/04/2015 UNNUMBERED DATA CRC OK
19:11:29 03/04/2015 ACARS MESSAGE CRC OK
19:11:29 03/04/2015 AGCS-D UPLINK AIRCRAFT: RPC8620
19:11:29 03/04/2015 NAK LABEL: 12 USER DEFINED
19:11:29 03/04/2015 BLOCK IDENTIFIER: O
19:11:29 03/04/2015 TEXT FOLLOWS
19:11:29 03/04/2015 LOADSHEET FINAL 0107
PR0383/03 04APR15
CAN MNL RPC8620 3/3/3
ZFW 56187 MAX 62500 L
TOF 8150
TOW 64337 MAX 77000
TIF 6000
LAW 58337 MAX 66000
LIZFW 116.41
MACZFW 31.95
LITOW 113.41
MACTOW
19:11:29 03/04/2015 MORE TEXT FOLLOWS


19:20:50 03/04/2015 DATA RATE 600 DOUBLE SLOT
19:20:50 03/04/2015 UPLINK
19:20:50 03/04/2015 GND ID 017 AIR ID 209 MDDR 300
19:20:50 03/04/2015 UNNUMBERED DATA CRC OK
19:20:50 03/04/2015 ACARS MESSAGE CRC OK
19:20:50 03/04/2015 AGCS-D UPLINK AIRCRAFT: N335UP
19:20:50 03/04/2015 NAK LABEL: A9 DELIVER ATIS INFORMATION
19:20:50 03/04/2015 BLOCK IDENTIFIER: I
19:20:50 03/04/2015 TEXT FOLLOWS
19:20:50 03/04/2015 /ATSUPXA.TI2/SZX ARR ATIS O
1700Z ZGSZ ARR ATIS O
1700Z EXPECT ILS
ARR RWY 16
CTN
TOWER FREQ 118.45
SEGREGATED OPERATION
WIND 150 DEG 05 MPS
VIS 9999
CLOUD BKN 990M
T 26 /DP 22
QNH 1008 HPA
TRANSITION ALTIT
19:20:50 03/04/2015 MORE TEXT FOLLOWS



18:16:56 03/04/2015 UNNUMBERED DATA CRC OK
18:16:56 03/04/2015 ACARS MESSAGE CRC OK
18:16:56 03/04/2015 AGCS-D UPLINK AIRCRAFT: VP-BTR
18:16:56 03/04/2015 NAK LABEL: RA COMMAND AIRCRAFT TRANSMIT DIAGNOSTIC
18:16:56 03/04/2015 BLOCK IDENTIFIER: N
18:16:56 03/04/2015 TEXT FOLLOWS
18:16:56 03/04/2015 QUQXSXXXS~1WXR01031616
WXR REPORT
SA 03/16:00
METAR UUEE 031600Z 10006MPS 2800 -SN OVC008 01/00 Q1005 07290145
57290145
NOSIG=
SA 03/16:00
METAR UUDD 031600Z 12005MPS 3300 -SN BKN005 OVC016 00/00 Q1004
18:16:56 03/04/2015 MORE TEXT FOLLOWS
Revenir en haut Aller en bas
Voir le profil de l'utilisateur
F-60130

avatar

Messages : 850
Date d'inscription : 14/04/2012

MessageSujet: Re: 21 955 Khz - HFDL Canaries - Espagne   Sam 11 Avr - 18:47


Bonjour,

Repris cet après-midi quelques messages textes sur la même fréquence en HFDL.
J'ai testé un autre soft (sorcerer) qui semble plus simple pour ne récupérer que la partie "texte".

----------------------------------------------------------[10/04/2015 19:07]
HACARS mode: 2 Aircraft reg: .G-DHLG
Message label: A9 Block id: S [Uplink]
Message content:-
AND DRY RWY25R CLR AND DRY DEP RWY25R TL FL050 190/5KT CAVOK T14 DP7 QNH 1016HPA NOSIG CONFIRM ARR K 164D

----------------------------------------------------------[10/04/2015 19:03]
HACARS mode: 2 Aircraft reg: .G-DHLG
Message label: A9 Block id: R [Uplink]
Message content:-
/BRUATYA.TI2/EBBR ARR ATIS K 1901Z EBBR NAT, EXP VECTORING FOR SIMULTANEOUS INDEPENDENT ILS APPROACHES IN PROGRESS. ILS 2 5 RIGHT 1 0 8 DEC 9. ILS 2 5 LEFT 1 1 0 DEC 3 5 ARR RWY25L RWY25R RSCD RWY25L CLR

----------------------------------------------------------[10/04/2015 18:45]
HACARS mode: 2 Aircraft reg: .N775SA
Message label: RA Block id: P [Uplink]
Message content:-
QUANPOC9S~1DIS01010101 FREETEXT NO NEW NOTAMS. REQD FUEL 43,226 LBS. WITH CAPT CONCUR RECLEARED TO OBBI WITH ALTERNATE OTBD. MB 1843Z

----------------------------------------------------------[10/04/2015 18:40]
HACARS mode: 2 Aircraft reg: .N19136
Message label: C1 Block id: N [Uplink]
Message content:-
********* TRK RCL TO D3.9 AML VOR. TURN LT HDG 180 DEG. ACCEL ALT. 1120FT MSL/ 800FT AFE. ** END OF PART 01 **

----------------------------------------------------------[10/04/2015 18:37]
HACARS mode: 2 Aircraft reg: .N19136
Message label: C1 Block id: M [Uplink]
Message content:-
00 MAX 5454 5164 6103 7395 +1000 OFF 3243 4296 5727 7338 +1000 IAD RW 19L (11500FT) ************************ RWY DRY ************************ 4420 GCS BROADBAND ANTENNA INSTALLED ***************

----------------------------------------------------------[10/04/2015 17:18]
HACARS mode: 2 Aircraft reg: .VQ-BAY
Message label: RA Block id: L [Uplink]
Message content:-
01700Z 11003MPS CAVOK 07/02 Q1021 NOSIG RMK QFE762 SC070= SA 10/17:00 METAR URKA 101700Z 04003MPS CAVOK 06/02 Q1021 RMK QFE762/1016=

----------------------------------------------------------[10/04/2015 17:12]
HACARS mode: 2 Aircraft reg: .VP-BRH
Message label: RA Block id: Z [Uplink]
Message content:-
/RQ ** PART 01 OF 01 ** UUEE -SVO - MOSCOW/SHEREMETYEVO SA 101630Z 31003MPS CAVOK 08/M04 Q1010 75000062 25000062 NOSIG. OMDB -DXB - DUBAI SA 101600Z 32004KT 270V030 CAVOK 29/17 Q1010 NOSIG. URWW -VOG - VOLG

----------------------------------------------------------[10/04/2015 18:40]
HACARS mode: 2 Aircraft reg: .N19136
Message label: C1 Block id: N [Uplink]
Message content:-
*********
TRK RCL TO D3.9 AML VOR.
TURN LT HDG 180 DEG.
ACCEL ALT. 1120FT MSL/
800FT AFE.
** END OF PART 01 **
Revenir en haut Aller en bas
Voir le profil de l'utilisateur
 
21 955 Khz - HFDL Canaries - Espagne
Voir le sujet précédent Voir le sujet suivant Revenir en haut 
Page 1 sur 1
 Sujets similaires
-
» à partir des îles Canaries (Espagne)(joseroman)
» Fausto GUTIERREZ (Yedharo Models) - Espagne
» soldat de la guerre d'Espagne
» Voyage en espagne...forfait bloqué virgin...
» Espagne, suite et fin: diaporama sur Cordoue et Tolède

Permission de ce forum:Vous ne pouvez pas répondre aux sujets dans ce forum
PASSION-SWL :: Utilitaire :: HF :: HFDL et Volmet-
Sauter vers:  
Créer un forum | © phpBB | Forum gratuit d'entraide | Contact | Signaler un abus | Forum gratuit